Time;durP1;ratioP1;P1;durP2;ratioP2;P2;SDS_P1;SDS_P2;PMS_P1;PMS_P2;Temp;Humidity;BMP_temperature;BMP_pressure;BME280_temperature;BME280_humidity;BME280_pressure;Samples;Min_cycle;Max_cycle;Signal;HPM_P1;HPM_P2
2022/09/20 00:00:32;;;;;;;3.60;1.70;;;;;;;9.11;80.02;97801.47;6232189;28;20598;-41
2022/09/20 00:03:36;;;;;;;3.03;1.90;;;;;;;9.13;79.92;97799.56;6238566;28;20235;-42
2022/09/20 00:06:38;;;;;;;3.33;1.20;;;;;;;9.15;79.31;97803.78;6256986;28;20576;-41
2022/09/20 00:09:40;;;;;;;3.20;1.70;;;;;;;9.14;80.04;97809.97;6256105;28;20722;-41
2022/09/20 00:12:43;;;;;;;3.73;1.63;;;;;;;9.18;79.69;97806.16;6256156;28;20242;-41
2022/09/20 00:15:45;;;;;;;2.50;1.50;;;;;;;9.17;79.09;97807.13;6256160;28;20276;-41
2022/09/20 00:18:51;;;;;;;1.63;1.40;;;;;;;9.13;79.63;97812.72;6257385;28;20246;-41
2022/09/20 00:21:53;;;;;;;1.63;1.30;;;;;;;9.13;78.86;97805.66;6256808;28;20373;-41
2022/09/20 00:24:55;;;;;;;1.67;1.13;;;;;;;9.10;79.80;97811.16;6257047;28;20229;-41
2022/09/20 00:27:57;;;;;;;1.87;1.50;;;;;;;9.05;79.67;97792.22;6256448;28;20236;-42
2022/09/20 00:31:00;;;;;;;2.10;1.20;;;;;;;9.03;80.34;97803.81;6255909;28;20250;-42
2022/09/20 00:37:22;;;;;;;2.97;1.30;;;;;;;9.00;80.07;97796.13;6256487;28;20236;-42
2022/09/20 00:40:27;;;;;;;1.60;1.50;;;;;;;9.04;79.05;97789.69;6256104;28;20729;-41
2022/09/20 00:43:42;;;;;;;2.60;1.27;;;;;;;9.05;79.47;97792.22;6255361;28;20242;-41
2022/09/20 00:46:44;;;;;;;4.63;1.30;;;;;;;9.05;79.26;97792.22;6254744;28;20250;-41
2022/09/20 00:49:48;;;;;;;2.53;1.20;;;;;;;9.06;78.88;97788.66;6255522;28;20706;-41
2022/09/20 00:52:57;;;;;;;1.40;1.30;;;;;;;9.08;78.67;97784.13;6238303;28;20239;-41
2022/09/20 00:56:05;;;;;;;2.90;1.40;;;;;;;9.10;78.15;97782.19;6255941;28;20227;-42
2022/09/20 00:59:15;;;;;;;2.43;1.20;;;;;;;9.07;78.57;97785.06;6256987;28;20740;-42
2022/09/20 01:02:36;;;;;;;2.60;1.20;;;;;;;9.11;79.35;97786.50;6255414;28;20327;-41
2022/09/20 01:05:39;;;;;;;1.57;1.30;;;;;;;9.19;79.95;97781.50;6253769;28;20604;-42
2022/09/20 01:08:47;;;;;;;4.73;1.40;;;;;;;9.18;79.83;97784.28;6254923;28;20242;-41
2022/09/20 01:11:54;;;;;;;3.03;1.60;;;;;;;9.11;80.23;97775.13;6255597;28;20260;-41
2022/09/20 01:14:58;;;;;;;2.57;1.70;;;;;;;9.05;79.76;97783.47;6255413;28;20554;-43
2022/09/20 01:18:02;;;;;;;2.10;1.20;;;;;;;9.00;80.36;97768.00;6254438;28;20583;-41
2022/09/20 01:21:06;;;;;;;1.23;1.10;;;;;;;8.97;80.94;97756.88;6253757;28;20239;-42
2022/09/20 01:24:47;;;;;;;1.40;1.00;;;;;;;8.96;80.59;97752.56;6254632;28;20700;-41
2022/09/20 01:27:51;;;;;;;3.00;1.20;;;;;;;8.92;82.23;97751.09;6221917;28;20223;-42
2022/09/20 01:30:55;;;;;;;2.30;1.10;;;;;;;8.91;82.21;97757.31;6237164;28;20240;-41
2022/09/20 01:34:02;;;;;;;2.90;1.23;;;;;;;8.99;80.57;97734.75;6255088;28;20238;-41
2022/09/20 01:37:17;;;;;;;4.97;1.33;;;;;;;8.98;80.87;97748.88;6253790;28;20227;-41
2022/09/20 01:40:30;;;;;;;2.53;1.30;;;;;;;8.91;80.90;97757.31;6254332;28;20327;-42
2022/09/20 01:43:43;;;;;;;2.83;1.40;;;;;;;8.88;80.85;97756.56;6254125;28;20221;-41
2022/09/20 01:46:53;;;;;;;5.23;1.20;;;;;;;8.86;80.52;97744.50;6253142;28;20231;-41
2022/09/20 01:50:34;;;;;;;3.20;1.00;;;;;;;8.78;81.62;97746.84;6255627;28;20235;-42
2022/09/20 01:54:01;;;;;;;1.50;1.20;;;;;;;8.73;82.13;97731.38;6254855;28;20237;-41
2022/09/20 01:57:40;;;;;;;1.60;1.20;;;;;;;8.79;81.17;97736.19;6256189;28;20825;-42
2022/09/20 02:01:03;;;;;;;2.43;1.27;;;;;;;8.80;80.55;97739.66;6254496;28;20600;-42
2022/09/20 02:04:32;;;;;;;1.73;0.93;;;;;;;8.78;81.21;97731.06;6254867;28;20764;-41
2022/09/20 02:07:51;;;;;;;1.97;1.20;;;;;;;8.73;81.71;97733.16;6254052;28;20724;-41
2022/09/20 02:11:08;;;;;;;3.93;1.17;;;;;;;8.77;81.00;97735.47;6254820;28;20600;-41
2022/09/20 02:14:46;;;;;;;0.90;0.90;;;;;;;8.77;81.39;97739.91;6257783;28;20239;-41
2022/09/20 02:18:06;;;;;;;1.80;0.80;;;;;;;8.75;80.48;97737.38;6254428;28;20234;-41
2022/09/20 02:21:26;;;;;;;1.20;0.97;;;;;;;8.70;81.29;97739.47;6253632;28;20235;-40
2022/09/20 02:24:43;;;;;;;1.83;1.00;;;;;;;8.69;80.90;97739.59;6254240;28;20240;-42
2022/09/20 02:28:20;;;;;;;1.03;0.93;;;;;;;8.63;82.01;97733.00;6253969;28;20235;-43
2022/09/20 02:31:42;;;;;;;1.37;0.83;;;;;;;8.62;81.12;97739.19;6230206;28;20235;-41
2022/09/20 02:34:56;;;;;;;1.10;0.93;;;;;;;8.65;81.17;97735.50;6253539;28;20239;-41
2022/09/20 02:38:13;;;;;;;1.73;1.07;;;;;;;8.61;82.19;97737.50;6235427;28;20318;-41
2022/09/20 02:41:32;;;;;;;1.73;1.33;;;;;;;8.58;83.25;97736.91;6253384;28;20234;-42
2022/09/20 02:44:46;;;;;;;1.90;1.37;;;;;;;8.55;83.61;97743.22;6253281;28;20230;-41
2022/09/20 02:47:48;;;;;;;2.37;1.80;;;;;;;8.63;83.77;97755.81;6253494;28;20263;-44
2022/09/20 02:51:01;;;;;;;3.77;2.20;;;;;;;8.75;82.98;97753.16;6253218;28;20322;-41
2022/09/20 02:54:21;;;;;;;3.10;1.87;;;;;;;8.82;82.72;97764.06;6237788;28;20254;-41
2022/09/20 02:57:45;;;;;;;3.83;2.87;;;;;;;8.82;83.48;97762.28;6253743;28;20527;-41
2022/09/20 03:00:52;;;;;;;4.80;1.97;;;;;;;8.83;83.69;97763.97;6258418;28;20393;-41
2022/09/20 03:04:25;;;;;;;4.00;2.20;;;;;;;8.86;83.96;97768.19;6259440;28;20243;-41
2022/09/20 03:07:39;;;;;;;4.33;2.00;;;;;;;8.80;84.27;97765.97;6258262;28;20235;-43
2022/09/20 03:11:00;;;;;;;4.43;2.23;;;;;;;8.73;84.59;97762.09;6258166;28;20231;-42
2022/09/20 03:14:10;;;;;;;3.17;1.97;;;;;;;8.69;84.59;97753.59;6257605;28;20242;-41
2022/09/20 03:17:41;;;;;;;4.27;2.10;;;;;;;8.66;85.22;97753.81;6258302;28;20227;-42
2022/09/20 03:21:04;;;;;;;3.00;2.40;;;;;;;8.63;86.11;97747.94;6257708;28;20237;-42
2022/09/20 03:24:39;;;;;;;4.17;2.60;;;;;;;8.59;86.25;97738.56;6258133;28;20278;-41
2022/09/20 03:28:16;;;;;;;2.73;2.10;;;;;;;8.56;86.59;97744.91;6224609;28;20227;-43
2022/09/20 03:31:33;;;;;;;2.53;2.27;;;;;;;8.57;87.51;97749.22;6256559;28;20227;-42
2022/09/20 03:34:39;;;;;;;4.70;2.60;;;;;;;8.64;86.78;97746.97;6257086;28;20231;-41
2022/09/20 03:38:08;;;;;;;4.73;2.43;;;;;;;8.64;86.89;97744.34;6257114;28;20263;-41
2022/09/20 03:41:36;;;;;;;4.33;3.20;;;;;;;8.63;86.23;97751.41;6257352;28;20227;-41
2022/09/20 03:45:08;;;;;;;2.53;2.33;;;;;;;8.65;86.32;97746.88;6256814;28;20306;-41
2022/09/20 03:48:45;;;;;;;2.90;2.70;;;;;;;8.69;85.56;97756.22;6255988;28;20728;-41
2022/09/20 03:51:57;;;;;;;2.23;2.03;;;;;;;8.70;85.76;97750.00;6256841;28;20602;-42
2022/09/20 03:55:03;;;;;;;4.57;2.00;;;;;;;8.70;86.61;97757.91;6258836;28;20229;-41
2022/09/20 03:58:05;;;;;;;2.80;2.37;;;;;;;8.68;86.93;97762.47;6257272;28;20220;-41
2022/09/20 04:01:49;;;;;;;3.70;2.50;;;;;;;8.67;86.36;97745.00;6240401;28;20678;-42
2022/09/20 04:04:59;;;;;;;2.20;2.10;;;;;;;8.67;86.23;97752.88;6256310;28;20242;-42
2022/09/20 04:08:37;;;;;;;3.57;2.07;;;;;;;8.65;87.03;97746.03;6256771;28;20772;-41
2022/09/20 04:11:52;;;;;;;3.07;2.10;;;;;;;8.60;87.36;97756.03;6256801;28;20610;-41
2022/09/20 04:15:16;;;;;;;1.83;1.70;;;;;;;8.56;87.30;97765.09;6256520;28;20232;-42
2022/09/20 04:18:57;;;;;;;4.00;1.90;;;;;;;8.54;87.55;97767.84;6256556;28;20313;-41
2022/09/20 04:22:00;;;;;;;1.90;1.80;;;;;;;8.56;88.75;97767.75;6256131;28;20711;-42
2022/09/20 04:25:14;;;;;;;2.00;1.60;;;;;;;8.56;88.06;97776.47;6256719;28;20239;-41
2022/09/20 04:28:25;;;;;;;1.53;1.40;;;;;;;8.56;88.43;97775.63;6259838;28;20239;-42
2022/09/20 04:31:49;;;;;;;2.90;2.10;;;;;;;8.53;87.90;97763.53;6257431;28;20238;-41
2022/09/20 04:39:26;;;;;;;2.00;1.80;;;;;;;8.55;86.55;97764.25;6257047;28;20228;-42
2022/09/20 04:42:46;;;;;;;2.40;1.50;;;;;;;8.56;86.02;97771.22;6255357;28;20233;-41
2022/09/20 04:46:28;;;;;;;1.70;1.60;;;;;;;8.58;86.19;97773.75;6256420;28;20817;-42
2022/09/20 04:50:09;;;;;;;1.40;1.30;;;;;;;8.59;86.45;97785.91;6254869;28;20362;-41
2022/09/20 04:53:32;;;;;;;2.03;1.80;;;;;;;8.59;85.82;97792.00;6255250;28;20242;-41
2022/09/20 04:57:14;;;;;;;2.00;1.33;;;;;;;8.60;86.50;97793.69;6254647;28;20311;-42
2022/09/20 05:00:23;;;;;;;1.70;1.47;;;;;;;8.58;86.43;97802.66;6254970;28;20695;-41
2022/09/20 05:03:31;;;;;;;1.97;1.40;;;;;;;8.54;87.41;97815.19;6255714;28;20242;-41
2022/09/20 05:06:55;;;;;;;2.77;1.90;;;;;;;8.56;86.95;97815.94;6255132;28;20798;-41
2022/09/20 05:10:30;;;;;;;2.73;1.33;;;;;;;8.57;86.71;97817.63;6255695;28;20219;-41
2022/09/20 05:14:11;;;;;;;2.23;1.10;;;;;;;8.55;86.85;97816.88;6255086;28;20235;-42
2022/09/20 05:17:31;;;;;;;2.03;1.30;;;;;;;8.58;86.53;97816.66;6255003;28;20235;-41
2022/09/20 05:20:58;;;;;;;1.30;1.20;;;;;;;8.60;86.29;97821.78;6254867;28;20234;-42
2022/09/20 05:24:15;;;;;;;2.17;1.43;;;;;;;8.61;86.77;97812.97;6253529;28;20246;-42
2022/09/20 05:27:34;;;;;;;2.63;1.17;;;;;;;8.64;86.56;97823.28;6254511;28;20212;-41
2022/09/20 05:30:46;;;;;;;1.63;1.27;;;;;;;8.64;87.58;97824.13;6254845;28;20709;-41
2022/09/20 05:34:02;;;;;;;3.83;1.53;;;;;;;8.66;87.98;97834.53;6253592;28;20231;-41
2022/09/20 05:37:38;;;;;;;1.20;1.20;;;;;;;8.65;86.95;97846.84;6254114;28;20223;-41
2022/09/20 05:41:08;;;;;;;3.13;1.37;;;;;;;8.66;87.50;97845.06;6254561;28;20223;-42
2022/09/20 05:44:26;;;;;;;2.30;1.13;;;;;;;8.69;87.01;97843.03;6254183;28;20603;-41
2022/09/20 05:47:36;;;;;;;1.70;1.33;;;;;;;8.70;87.43;97849.97;6254289;28;20318;-41
2022/09/20 05:51:06;;;;;;;4.70;1.50;;;;;;;8.70;88.09;97852.63;6253328;28;20602;-42
2022/09/20 05:54:21;;;;;;;1.43;1.27;;;;;;;8.71;88.00;97853.47;6253743;28;20634;-42
2022/09/20 05:57:32;;;;;;;1.30;1.20;;;;;;;8.70;88.88;97855.25;6253985;28;20356;-43
2022/09/20 06:00:54;;;;;;;2.27;1.63;;;;;;;8.73;88.97;97867.34;6253825;28;20330;-41
2022/09/20 06:04:17;;;;;;;1.97;1.47;;;;;;;8.75;88.36;97868.09;6253285;28;20238;-41
2022/09/20 06:07:41;;;;;;;1.90;1.20;;;;;;;8.79;88.49;97873.03;6254421;28;20227;-41
2022/09/20 06:11:21;;;;;;;1.80;1.30;;;;;;;8.83;88.58;97873.66;6236553;28;20624;-41
2022/09/20 06:14:49;;;;;;;2.00;1.20;;;;;;;8.86;88.75;97878.72;6204234;28;20316;-41
2022/09/20 06:18:13;;;;;;;1.93;1.57;;;;;;;8.88;88.55;97871.56;6253419;28;20239;-41
2022/09/20 06:21:24;;;;;;;2.07;1.60;;;;;;;8.97;87.94;97883.22;6256145;28;20220;-41
2022/09/20 06:24:44;;;;;;;1.87;1.67;;;;;;;9.08;88.25;97897.31;6253402;28;20229;-42
2022/09/20 06:27:53;;;;;;;2.10;1.90;;;;;;;9.24;87.33;97883.88;6253240;28;20232;-42
2022/09/20 06:30:56;;;;;;;1.80;1.40;;;;;;;9.36;87.55;97890.91;6253388;28;20232;-41
2022/09/20 06:34:04;;;;;;;2.30;1.50;;;;;;;9.52;87.29;97882.72;6251958;28;20238;-41
2022/09/20 06:44:11;;;;;;;2.03;1.60;;;;;;;9.88;85.09;97884.47;6253435;28;20971;-43
2022/09/20 06:47:13;;;;;;;2.43;1.67;;;;;;;9.96;84.56;97884.75;6253554;28;20730;-41
2022/09/20 06:50:16;;;;;;;3.63;1.57;;;;;;;10.02;84.21;97891.34;6252686;28;20825;-41
2022/09/20 06:53:27;;;;;;;2.83;1.30;;;;;;;10.10;84.43;97888.97;6252386;28;20232;-42
2022/09/20 06:56:35;;;;;;;1.40;1.30;;;;;;;10.10;84.23;97884.53;6252848;28;20371;-42
2022/09/20 06:59:37;;;;;;;1.67;1.20;;;;;;;10.14;84.41;97896.53;6253732;28;20318;-41
2022/09/20 07:02:40;;;;;;;2.60;1.37;;;;;;;10.17;84.04;97906.88;6253334;28;20726;-41
2022/09/20 07:05:41;;;;;;;1.90;1.70;;;;;;;10.11;82.29;97901.19;6252829;28;20726;-42
2022/09/20 07:08:44;;;;;;;1.70;1.30;;;;;;;10.07;83.66;97897.97;6253067;28;20234;-42
2022/09/20 07:11:46;;;;;;;2.63;1.30;;;;;;;10.07;83.74;97903.25;6252507;28;20224;-41
2022/09/20 07:14:49;;;;;;;1.77;1.50;;;;;;;10.11;84.44;97912.59;6251974;28;20380;-42
2022/09/20 07:17:51;;;;;;;2.63;1.40;;;;;;;10.21;84.35;97912.78;6253253;28;20231;-41
2022/09/20 07:20:57;;;;;;;1.93;1.40;;;;;;;10.30;84.12;97915.56;6252983;28;20228;-41
2022/09/20 07:24:00;;;;;;;1.50;1.40;;;;;;;10.37;84.62;97915.97;6251765;28;20246;-43
2022/09/20 07:27:04;;;;;;;1.73;1.40;;;;;;;10.38;83.71;97916.81;6252660;28;20697;-41
2022/09/20 07:30:07;;;;;;;2.60;1.57;;;;;;;10.37;84.24;97923.03;6255043;28;20208;-43
2022/09/20 07:33:10;;;;;;;2.87;1.20;;;;;;;10.42;84.11;97919.06;6252898;28;20678;-42
2022/09/20 07:36:13;;;;;;;1.97;1.23;;;;;;;10.60;83.18;97922.09;6251999;28;20230;-44
2022/09/20 07:39:16;;;;;;;5.70;1.73;;;;;;;10.82;82.28;97919.50;6252738;28;20243;-41
2022/09/20 07:42:18;;;;;;;1.97;1.40;;;;;;;11.17;80.76;97922.03;6251254;28;20326;-42
2022/09/20 07:45:20;;;;;;;2.37;1.37;;;;;;;11.54;78.99;97911.19;6251805;28;20518;-41
2022/09/20 07:48:24;;;;;;;2.00;1.40;;;;;;;11.95;77.08;97915.78;6256574;28;20251;-41
2022/09/20 07:51:26;;;;;;;1.57;1.47;;;;;;;12.24;75.68;97908.91;6258071;28;20669;-41
2022/09/20 07:54:29;;;;;;;2.87;1.33;;;;;;;12.43;74.64;97911.69;6256019;28;20229;-41
2022/09/20 07:57:36;;;;;;;2.30;1.53;;;;;;;12.17;74.50;97911.25;6257372;28;20756;-42
2022/09/20 08:00:38;;;;;;;2.40;1.40;;;;;;;12.52;73.43;97918.88;6256681;28;20242;-41
2022/09/20 08:03:41;;;;;;;1.60;1.27;;;;;;;12.52;72.65;97912.72;6256149;28;20291;-41
2022/09/20 08:06:45;;;;;;;2.43;1.50;;;;;;;12.39;72.99;97917.38;6257506;28;20259;-42
2022/09/20 08:09:47;;;;;;;2.60;1.37;;;;;;;12.68;72.60;97917.56;6256130;28;20238;-41
2022/09/20 08:12:49;;;;;;;1.27;1.17;;;;;;;12.78;71.58;97915.78;6254838;28;20236;-41
2022/09/20 08:19:52;;;;;;;1.47;1.37;;;;;;;12.69;71.07;97927.19;6230996;28;20722;-90
2022/09/20 08:22:54;;;;;;;2.50;1.57;;;;;;;12.71;71.15;97925.25;6196305;28;20224;-90
2022/09/20 08:26:22;;;;;;;2.63;1.27;;;;;;;12.87;70.89;97921.19;6191828;28;20243;-90
2022/09/20 08:29:24;;;;;;;2.50;1.00;;;;;;;12.62;69.31;97933.97;6175128;28;20240;-90
2022/09/20 08:32:26;;;;;;;1.60;0.87;;;;;;;12.70;69.88;97921.75;6167352;28;20232;-91
2022/09/20 08:35:34;;;;;;;1.00;1.00;;;;;;;12.93;69.28;97914.50;6175880;28;20243;-90
2022/09/20 08:38:39;;;;;;;1.83;1.10;;;;;;;13.11;68.92;97914.72;6176630;28;20724;-91
2022/09/20 08:42:12;;;;;;;0.87;0.70;;;;;;;13.24;68.01;97912.72;6178495;28;20329;-90
2022/09/20 08:45:21;;;;;;;3.10;0.80;;;;;;;13.23;65.88;97916.34;6192317;28;20208;-91
2022/09/20 08:48:35;;;;;;;3.33;1.00;;;;;;;13.37;66.58;97933.69;6189945;28;20254;-90
2022/09/20 08:51:39;;;;;;;2.17;0.93;;;;;;;13.51;65.95;97920.88;6191971;28;20242;-89
2022/09/20 08:54:42;;;;;;;1.73;1.10;;;;;;;13.45;66.22;97915.28;6174040;28;20269;-90
2022/09/20 08:57:54;;;;;;;3.93;1.10;;;;;;;13.57;66.17;97916.88;6190456;28;20236;-90
2022/09/20 09:00:57;;;;;;;0.80;0.77;;;;;;;14.03;64.24;97929.50;6174923;28;20281;-88
2022/09/20 09:04:11;;;;;;;1.10;0.93;;;;;;;14.04;63.69;97925.88;6174728;28;20232;-92
2022/09/20 09:07:17;;;;;;;1.30;0.80;;;;;;;14.21;62.90;97901.28;6174976;28;20237;-91
2022/09/20 09:10:19;;;;;;;1.60;0.70;;;;;;;14.87;61.71;97900.53;6190372;28;20266;-91
2022/09/20 09:13:31;;;;;;;0.80;0.70;;;;;;;15.07;60.87;97918.09;6172318;28;20248;-92
2022/09/20 09:16:34;;;;;;;1.60;0.80;;;;;;;15.34;59.97;97901.31;6166256;28;20708;-90
2022/09/20 09:19:49;;;;;;;1.60;0.77;;;;;;;15.74;57.38;97898.31;6170261;28;20315;-93
2022/09/20 09:23:20;;;;;;;1.43;0.60;;;;;;;15.30;57.77;97899.91;6191127;28;20727;-91
2022/09/20 09:26:23;;;;;;;1.50;0.60;;;;;;;14.95;58.67;97912.09;6190290;28;20723;-90
2022/09/20 09:29:25;;;;;;;1.10;0.80;;;;;;;14.33;56.90;97897.50;6206968;28;20311;-89
2022/09/20 09:32:32;;;;;;;1.23;0.60;;;;;;;14.45;60.23;97902.69;6190133;28;20235;-92
2022/09/20 09:35:35;;;;;;;1.43;0.60;;;;;;;15.54;58.79;97886.09;6190152;28;20285;-90
2022/09/20 09:38:40;;;;;;;1.47;0.70;;;;;;;15.76;58.05;97904.31;6189408;28;20660;-90
2022/09/20 09:41:43;;;;;;;0.93;0.70;;;;;;;15.19;57.55;97890.31;6200768;28;20304;-91
2022/09/20 09:44:49;;;;;;;2.10;0.60;;;;;;;14.45;60.30;97898.22;6165241;28;20712;-91
2022/09/20 09:47:52;;;;;;;1.07;0.60;;;;;;;14.09;61.77;97893.59;6166317;28;20233;-91
2022/09/20 09:51:14;;;;;;;1.53;0.70;;;;;;;13.90;62.39;97897.91;6172348;28;20252;-90
2022/09/20 09:54:18;;;;;;;1.30;0.70;;;;;;;13.17;64.69;97899.16;6180814;28;20860;-91
2022/09/20 09:58:05;;;;;;;1.13;0.90;;;;;;;13.06;67.13;97890.44;6182232;28;20228;-91
2022/09/20 10:01:22;;;;;;;2.13;0.70;;;;;;;12.94;66.66;97890.53;6178356;28;20692;-90
2022/09/20 10:05:02;;;;;;;3.17;1.13;;;;;;;12.70;66.94;97897.09;6168572;28;20709;-90
2022/09/20 10:08:26;;;;;;;1.53;0.70;;;;;;;12.76;68.07;97891.28;6184310;28;20594;-92
2022/09/20 10:11:57;;;;;;;0.97;0.70;;;;;;;12.70;67.51;97887.34;6187188;28;20719;-92
2022/09/20 10:15:12;;;;;;;1.50;0.80;;;;;;;13.45;67.72;97876.38;6196352;28;20235;-93
2022/09/20 10:18:20;;;;;;;2.63;1.10;;;;;;;14.10;67.15;97882.84;6178524;28;20323;-93
2022/09/20 10:21:40;;;;;;;0.93;0.80;;;;;;;14.45;64.19;97866.38;6173854;28;20693;-91
2022/09/20 10:25:00;;;;;;;0.77;0.67;;;;;;;14.86;61.61;97858.97;6180827;28;20229;-92
2022/09/20 10:28:21;;;;;;;1.87;0.70;;;;;;;15.22;60.76;97852.78;6195041;28;20218;-92
2022/09/20 10:31:41;;;;;;;1.60;0.60;;;;;;;15.90;58.58;97858.53;6211915;28;20660;-92
2022/09/20 10:35:18;;;;;;;1.03;0.70;;;;;;;16.96;56.05;97870.88;6173160;28;20336;-91
2022/09/20 10:38:24;;;;;;;1.53;0.77;;;;;;;17.70;54.92;97879.03;6164125;28;20720;-90
2022/09/20 10:45:08;;;;;;;1.10;0.60;;;;;;;17.12;53.85;97894.94;6180738;28;20237;-90
2022/09/20 10:48:36;;;;;;;0.60;0.60;;;;;;;15.57;58.54;97909.78;6164556;28;20225;-89
2022/09/20 10:52:07;;;;;;;1.33;0.70;;;;;;;14.63;63.36;97946.16;6176788;28;20276;-90
2022/09/20 10:55:49;;;;;;;1.50;0.70;;;;;;;13.28;64.17;97954.72;6206257;28;20255;-90
2022/09/20 10:59:30;;;;;;;3.93;0.97;;;;;;;12.45;67.58;97911.56;6190213;28;20247;-90
2022/09/20 11:02:35;;;;;;;1.90;0.50;;;;;;;12.16;69.39;97909.56;6188094;28;20264;-90
2022/09/20 11:06:00;;;;;;;2.00;0.60;;;;;;;11.99;70.41;97910.09;6172495;28;20236;-89
2022/09/20 11:09:08;;;;;;;0.63;0.43;;;;;;;11.86;70.88;97905.97;6187893;28;20244;-89
2022/09/20 11:12:34;;;;;;;1.60;0.50;;;;;;;11.74;73.17;97903.31;6162001;28;20358;-90
2022/09/20 11:15:52;;;;;;;0.20;0.20;;;;;;;11.69;73.94;97918.69;6163621;28;20229;-90
2022/09/20 11:19:19;;;;;;;1.30;0.47;;;;;;;11.59;74.28;97928.34;6164028;28;20233;-90
2022/09/20 11:22:26;;;;;;;0.30;0.30;;;;;;;11.46;74.85;97940.88;6177841;28;20375;-89
2022/09/20 11:25:53;;;;;;;1.13;0.33;;;;;;;11.37;75.96;97962.75;6192510;28;20654;-89
2022/09/20 11:29:06;;;;;;;0.60;0.50;;;;;;;10.99;77.43;97973.63;6177313;28;20258;-92
2022/09/20 11:32:20;;;;;;;1.83;0.70;;;;;;;10.85;78.70;97980.00;6177149;28;20240;-91
2022/09/20 11:35:29;;;;;;;2.53;1.10;;;;;;;10.67;80.35;97961.13;6176565;28;20303;-91
2022/09/20 11:38:55;;;;;;;2.67;0.83;;;;;;;10.50;79.87;97944.88;6192114;28;20232;-92
2022/09/20 11:42:00;;;;;;;1.17;0.80;;;;;;;10.51;80.63;97943.91;6196115;28;20282;-90
2022/09/20 11:45:03;;;;;;;3.17;0.80;;;;;;;10.62;80.55;97930.75;6175583;28;20711;-90
2022/09/20 11:48:13;;;;;;;2.73;0.70;;;;;;;10.74;80.69;97924.53;6192747;28;20207;-89
2022/09/20 11:51:32;;;;;;;0.77;0.60;;;;;;;10.86;80.90;97920.13;6175703;28;20226;-88
2022/09/20 11:54:48;;;;;;;1.60;0.80;;;;;;;10.97;80.94;97907.75;6176044;28;20236;-89
2022/09/20 11:58:15;;;;;;;0.83;0.70;;;;;;;11.06;79.75;97909.69;6191918;28;20326;-89
2022/09/20 12:01:33;;;;;;;0.67;0.67;;;;;;;11.41;80.72;97908.66;6176615;28;20240;-89
2022/09/20 12:04:36;;;;;;;1.70;0.70;;;;;;;11.91;79.87;97903.75;6191500;28;20888;-90
2022/09/20 12:07:43;;;;;;;0.93;0.60;;;;;;;12.72;79.09;97897.78;6191147;28;20232;-90
2022/09/20 12:10:58;;;;;;;2.10;0.70;;;;;;;13.80;74.76;97893.59;6191291;28;20230;-89
2022/09/20 12:14:28;;;;;;;1.13;0.47;;;;;;;15.02;69.16;97883.09;6166766;28;20237;-89
2022/09/20 12:17:56;;;;;;;0.90;0.67;;;;;;;15.22;62.59;97898.00;6167857;28;20696;-89
2022/09/20 12:21:04;;;;;;;0.60;0.60;;;;;;;15.10;66.24;97893.84;6165960;28;20233;-90
2022/09/20 12:24:17;;;;;;;0.50;0.50;;;;;;;15.09;68.96;97900.97;6184079;28;20296;-89
2022/09/20 12:27:26;;;;;;;1.80;0.50;;;;;;;14.30;66.59;97920.84;6167766;28;20658;-90
2022/09/20 12:30:32;;;;;;;0.77;0.40;;;;;;;13.59;70.46;97944.91;6183342;28;20262;-89
2022/09/20 12:34:08;;;;;;;0.50;0.40;;;;;;;12.67;71.73;97932.63;6166736;28;20233;-90
2022/09/20 12:37:10;;;;;;;0.70;0.40;;;;;;;12.17;74.67;97958.03;6183395;28;20705;-90
2022/09/20 12:40:15;;;;;;;0.67;0.50;;;;;;;11.86;75.01;97958.84;6184104;28;20728;-91
2022/09/20 12:43:21;;;;;;;1.27;0.60;;;;;;;11.48;74.80;97960.06;6190762;28;20703;-90
2022/09/20 12:46:37;;;;;;;0.60;0.60;;;;;;;11.28;75.48;97955.53;6190042;28;20334;-90
2022/09/20 12:53:13;;;;;;;0.93;0.60;;;;;;;11.10;77.58;97953.34;6190056;28;20252;-91
2022/09/20 12:56:22;;;;;;;1.07;0.73;;;;;;;11.07;78.30;97948.34;6175645;28;20239;-90
2022/09/20 12:59:29;;;;;;;0.70;0.50;;;;;;;10.99;79.20;97957.78;6189712;28;20310;-90
2022/09/20 13:02:51;;;;;;;0.63;0.43;;;;;;;10.84;80.65;97953.72;6174948;28;20228;-90
2022/09/20 13:06:05;;;;;;;1.37;0.70;;;;;;;10.62;81.52;97957.97;6173580;28;20258;-89
2022/09/20 13:09:09;;;;;;;1.73;0.67;;;;;;;10.44;82.15;97966.47;6175264;28;20708;-88
2022/09/20 13:12:11;;;;;;;0.93;0.60;;;;;;;10.06;81.48;97971.91;6174499;28;20304;-90
2022/09/20 13:15:18;;;;;;;0.80;0.70;;;;;;;9.91;82.65;97973.88;6193105;28;20239;-90
2022/09/20 13:18:23;;;;;;;1.83;0.90;;;;;;;9.72;81.40;97978.78;6174694;28;20239;-90
2022/09/20 13:21:26;;;;;;;2.57;0.60;;;;;;;9.61;82.80;97963.75;6155936;28;20579;-90
2022/09/20 13:24:37;;;;;;;1.20;0.60;;;;;;;9.59;83.45;97968.28;6151413;28;20225;-90
2022/09/20 13:27:49;;;;;;;2.73;1.00;;;;;;;9.57;84.16;97972.84;6166938;28;20543;-90
2022/09/20 13:31:15;;;;;;;1.03;0.60;;;;;;;9.50;82.51;97961.03;6151668;28;20241;-91
2022/09/20 13:34:23;;;;;;;0.30;0.30;;;;;;;9.36;82.11;97955.91;6165879;28;20244;-90
2022/09/20 13:37:25;;;;;;;0.97;0.47;;;;;;;9.20;81.81;97959.63;6166984;28;20783;-90
2022/09/20 13:40:37;;;;;;;0.73;0.57;;;;;;;9.15;82.54;97958.28;6168648;28;20229;-90
2022/09/20 13:43:42;;;;;;;3.03;0.77;;;;;;;9.20;83.01;97946.44;6170077;28;20236;-90
2022/09/20 13:46:45;;;;;;;0.57;0.47;;;;;;;9.24;82.69;97942.66;6169941;28;20260;-90
2022/09/20 13:49:47;;;;;;;0.40;0.40;;;;;;;9.45;82.70;97937.66;6174763;28;20714;-90
2022/09/20 13:52:56;;;;;;;1.30;0.30;;;;;;;9.65;83.17;97932.75;6178403;28;20230;-90
2022/09/20 13:55:58;;;;;;;1.23;0.30;;;;;;;9.83;83.46;97928.78;6193041;28;20235;-90
2022/09/20 13:59:04;;;;;;;0.30;0.30;;;;;;;10.13;82.60;97921.22;6204613;28;20333;-89
2022/09/20 14:02:30;;;;;;;1.80;0.40;;;;;;;10.88;79.60;97926.13;6203767;28;20210;-90
2022/09/20 14:05:32;;;;;;;0.97;0.30;;;;;;;12.55;72.41;97928.38;6220663;28;20226;-92
2022/09/20 14:08:43;;;;;;;1.27;0.50;;;;;;;13.60;67.83;97924.53;6204583;28;20242;-90
2022/09/20 14:11:45;;;;;;;0.63;0.33;;;;;;;13.10;68.14;97926.28;6213715;28;20242;-92
2022/09/20 14:14:49;;;;;;;0.40;0.40;;;;;;;12.49;69.29;97918.28;6179704;28;20226;-91
2022/09/20 14:17:54;;;;;;;0.93;0.30;;;;;;;12.22;71.32;97912.66;6197276;28;20275;-90
2022/09/20 14:20:57;;;;;;;0.37;0.30;;;;;;;11.93;71.91;97920.34;6202669;28;20218;-90
2022/09/20 14:24:02;;;;;;;0.73;0.50;;;;;;;11.94;72.75;97920.22;6211783;28;20222;-89
2022/09/20 14:27:17;;;;;;;0.60;0.50;;;;;;;11.71;71.82;97927.34;6211134;28;20208;-91
2022/09/20 14:30:31;;;;;;;0.33;0.27;;;;;;;11.71;72.53;97914.13;6211842;28;20284;-92
2022/09/20 14:33:38;;;;;;;0.30;0.30;;;;;;;11.64;74.04;97914.75;6216824;28;20242;-90
2022/09/20 14:36:41;;;;;;;1.23;0.40;;;;;;;11.50;76.11;97909.72;6211714;28;20215;-91
2022/09/20 14:39:52;;;;;;;1.13;0.50;;;;;;;11.24;76.45;97920.59;6210650;28;20306;-91
2022/09/20 14:43:02;;;;;;;0.33;0.33;;;;;;;11.01;76.68;97916.25;6216821;28;20217;-91
2022/09/20 14:46:14;;;;;;;0.30;0.30;;;;;;;10.82;76.81;97923.94;6200211;28;20242;-92
2022/09/20 14:49:29;;;;;;;0.27;0.27;;;;;;;10.77;76.84;97928.75;6217514;28;20241;-91
2022/09/20 14:52:36;;;;;;;2.43;0.60;;;;;;;10.67;78.53;97928.63;6195041;28;20224;-92
2022/09/20 14:55:59;;;;;;;0.50;0.37;;;;;;;10.47;77.49;97932.78;6198825;28;20231;-92
2022/09/20 14:59:17;;;;;;;0.63;0.40;;;;;;;10.40;76.93;97934.16;6203193;28;20248;-91
2022/09/20 15:02:20;;;;;;;1.20;0.50;;;;;;;10.43;76.92;97941.88;6200685;28;20243;-91
2022/09/20 15:05:26;;;;;;;0.60;0.40;;;;;;;10.44;76.37;97947.97;6200007;28;20296;-92
2022/09/20 15:08:28;;;;;;;0.80;0.50;;;;;;;10.43;78.94;97946.31;6201736;28;20443;-91
2022/09/20 15:11:30;;;;;;;3.80;0.43;;;;;;;10.49;78.37;97956.38;6204027;28;20207;-90
2022/09/20 15:14:32;;;;;;;0.63;0.30;;;;;;;10.66;77.26;97948.88;6208369;28;20259;-91
2022/09/20 15:17:39;;;;;;;0.87;0.50;;;;;;;10.88;76.68;97945.41;6216336;28;20222;-92
2022/09/20 15:20:41;;;;;;;0.23;0.23;;;;;;;11.04;77.26;97947.72;6192934;28;20236;-91
2022/09/20 15:23:43;;;;;;;0.50;0.40;;;;;;;11.08;78.58;97954.44;6160969;28;20388;-92
2022/09/20 15:26:45;;;;;;;0.73;0.40;;;;;;;11.24;78.21;97946.16;6161403;28;20734;-91
2022/09/20 15:29:47;;;;;;;1.03;0.40;;;;;;;11.54;75.44;97951.66;6177035;28;20270;-92
2022/09/20 15:32:51;;;;;;;1.03;0.40;;;;;;;11.69;75.36;97952.22;6145708;28;20242;-90
2022/09/20 15:35:53;;;;;;;0.60;0.40;;;;;;;11.48;77.96;97960.06;6177119;28;20239;-91
2022/09/20 15:38:56;;;;;;;0.70;0.40;;;;;;;11.20;80.02;97971.97;6144508;28;20233;-91